createdAt,value
2018-09-08T00:00:03.473Z,8.27
2018-09-08T00:02:31.958Z,7.70
2018-09-08T00:05:00.360Z,8.20
2018-09-08T00:07:34.062Z,7.87
2018-09-08T00:10:02.390Z,8.70
2018-09-08T00:12:30.706Z,8.20
2018-09-08T00:15:04.232Z,6.80
2018-09-08T00:17:37.885Z,7.80
2018-09-08T00:20:11.715Z,7.60
2018-09-08T00:22:45.445Z,7.80
2018-09-08T00:25:19.137Z,6.70
2018-09-08T00:27:54.982Z,7.80
2018-09-08T00:30:23.372Z,7.60
2018-09-08T00:32:51.753Z,8.03
2018-09-08T00:35:20.074Z,8.60
2018-09-08T00:37:48.489Z,7.90
2018-09-08T00:40:16.805Z,8.07
2018-09-08T00:42:47.382Z,8.30
2018-09-08T00:45:15.760Z,7.97
2018-09-08T00:47:44.130Z,8.03
2018-09-08T00:50:12.499Z,7.80
2018-09-08T00:52:40.873Z,8.47
2018-09-08T00:55:09.416Z,9.00
2018-09-08T00:57:37.748Z,9.23
2018-09-08T01:00:06.096Z,8.37
2018-09-08T01:02:34.426Z,8.70
2018-09-08T01:05:02.738Z,9.37
2018-09-08T01:07:31.741Z,9.00
2018-09-08T01:10:01.967Z,8.40
2018-09-08T01:12:30.974Z,8.70
2018-09-08T01:14:59.975Z,8.17
2018-09-08T01:17:28.514Z,7.87
2018-09-08T01:19:56.935Z,8.50
2018-09-08T01:22:25.485Z,8.63
2018-09-08T01:24:54.108Z,8.30
2018-09-08T01:27:22.527Z,8.00
2018-09-08T01:29:50.859Z,8.20
2018-09-08T01:32:19.242Z,7.63
2018-09-08T01:34:47.606Z,7.50
2018-09-08T01:37:15.973Z,8.77
2018-09-08T01:39:44.330Z,7.17
2018-09-08T01:42:12.665Z,7.63
2018-09-08T01:44:41.064Z,8.00
2018-09-08T01:47:09.405Z,7.40
2018-09-08T01:49:37.750Z,6.60
2018-09-08T01:52:06.146Z,7.17
2018-09-08T01:54:34.506Z,7.20
2018-09-08T01:57:02.950Z,6.83
2018-09-08T01:59:31.285Z,7.40
2018-09-08T02:01:59.623Z,7.57
2018-09-08T02:04:27.942Z,8.97
2018-09-08T02:06:56.357Z,7.73
2018-09-08T02:09:24.875Z,7.60
2018-09-08T02:11:53.204Z,8.30
2018-09-08T02:14:21.545Z,8.33
2018-09-08T02:16:49.847Z,9.60
2018-09-08T02:19:18.193Z,10.90
2018-09-08T02:21:46.525Z,10.37
2018-09-08T02:24:14.815Z,10.63
2018-09-08T02:26:43.167Z,8.30
2018-09-08T02:29:11.481Z,9.33
2018-09-08T02:31:39.791Z,8.80
2018-09-08T02:34:08.143Z,8.20
2018-09-08T02:36:36.474Z,7.73
2018-09-08T02:39:05.958Z,9.30
2018-09-08T02:41:34.290Z,9.30
2018-09-08T02:44:02.593Z,9.27
2018-09-08T02:46:30.973Z,9.07
2018-09-08T02:48:59.292Z,9.67
2018-09-08T02:51:26.613Z,8.77
2018-09-08T02:53:53.862Z,9.30
2018-09-08T02:56:21.119Z,8.40
2018-09-08T02:58:48.385Z,9.10
2018-09-08T03:01:15.642Z,8.33
2018-09-08T03:03:42.900Z,8.03
2018-09-08T03:06:10.194Z,8.37
2018-09-08T03:08:37.447Z,7.63
2018-09-08T03:11:04.717Z,7.70
2018-09-08T03:13:31.974Z,8.20
2018-09-08T03:15:59.242Z,8.20
2018-09-08T03:18:26.499Z,8.10
2018-09-08T03:20:53.807Z,6.57
2018-09-08T03:23:21.086Z,7.43
2018-09-08T03:25:48.381Z,7.80
2018-09-08T03:28:15.647Z,7.90
2018-09-08T03:30:42.897Z,8.20
2018-09-08T03:33:10.190Z,9.97
2018-09-08T03:35:37.471Z,8.10
2018-09-08T03:38:04.961Z,8.43
2018-09-08T03:40:32.279Z,8.80
2018-09-08T03:42:59.527Z,8.63
2018-09-08T03:45:26.804Z,9.03
2018-09-08T03:47:54.088Z,8.83
2018-09-08T03:50:21.358Z,7.93
2018-09-08T03:52:48.638Z,9.40
2018-09-08T03:55:15.879Z,8.00
2018-09-08T03:57:43.139Z,9.53
2018-09-08T04:00:10.398Z,8.27
2018-09-08T04:02:38.752Z,9.10
2018-09-08T04:05:07.103Z,9.10
2018-09-08T04:07:35.545Z,7.33
2018-09-08T04:10:03.986Z,7.87
2018-09-08T04:12:32.634Z,7.40
2018-09-08T04:15:00.947Z,8.53
2018-09-08T04:17:29.358Z,9.37
2018-09-08T04:19:57.674Z,6.30
2018-09-08T04:22:30.479Z,6.90
2018-09-08T04:24:59.000Z,7.57
2018-09-08T04:27:27.313Z,5.70
2018-09-08T04:29:55.802Z,6.33
2018-09-08T04:32:24.178Z,6.10
2018-09-08T04:34:52.620Z,5.30
2018-09-08T04:37:21.009Z,5.93
2018-09-08T04:39:49.333Z,6.00
2018-09-08T04:42:17.624Z,6.30
2018-09-08T04:44:46.934Z,5.90
2018-09-08T04:47:15.545Z,6.23
2018-09-08T04:49:43.877Z,6.83
2018-09-08T04:52:12.232Z,7.13
2018-09-08T04:54:40.579Z,7.33
2018-09-08T04:57:08.917Z,6.60
2018-09-08T04:59:37.328Z,7.23
2018-09-08T05:02:05.812Z,6.30
2018-09-08T05:04:34.208Z,6.43
2018-09-08T05:07:02.533Z,6.50
2018-09-08T05:09:30.862Z,6.80
2018-09-08T05:11:59.216Z,6.47
2018-09-08T05:14:27.753Z,6.30
2018-09-08T05:16:56.267Z,7.20
2018-09-08T05:19:24.593Z,7.23
2018-09-08T05:21:52.957Z,6.50
2018-09-08T05:24:21.301Z,7.97
2018-09-08T05:26:49.629Z,7.77
2018-09-08T05:29:17.939Z,7.90
2018-09-08T05:31:47.055Z,8.30
2018-09-08T05:34:15.565Z,7.17
2018-09-08T05:36:44.071Z,7.47
2018-09-08T05:39:12.440Z,8.03
2018-09-08T05:41:40.804Z,8.53
2018-09-08T05:44:09.145Z,7.20
2018-09-08T05:46:37.493Z,8.03
2018-09-08T05:49:05.797Z,8.63
2018-09-08T05:51:34.144Z,7.60
2018-09-08T05:54:02.514Z,6.63
2018-09-08T05:56:30.837Z,7.07
2018-09-08T05:58:59.136Z,5.93
2018-09-08T06:01:27.436Z,6.10
2018-09-08T06:03:56.683Z,6.50
2018-09-08T06:06:25.057Z,6.10
2018-09-08T06:08:53.389Z,5.50
2018-09-08T06:11:21.714Z,5.53
2018-09-08T06:13:50.053Z,5.63
2018-09-08T06:16:18.413Z,5.93
2018-09-08T06:18:46.847Z,6.00
2018-09-08T06:21:15.193Z,5.40
2018-09-08T06:23:43.559Z,5.87
2018-09-08T06:26:11.863Z,5.80
2018-09-08T06:28:40.354Z,5.90
2018-09-08T06:31:08.516Z,5.93
2018-09-08T06:33:37.460Z,5.70
2018-09-08T06:36:06.815Z,5.43
2018-09-08T06:38:35.166Z,4.73
2018-09-08T06:43:28.141Z,4.53
2018-09-08T06:45:57.099Z,4.10
2018-09-08T06:48:25.491Z,4.30
2018-09-08T06:50:53.836Z,4.00
2018-09-08T06:53:22.191Z,4.90
2018-09-08T06:55:50.612Z,4.20
2018-09-08T06:58:18.992Z,4.10
2018-09-08T07:00:47.378Z,4.10
2018-09-08T07:03:15.787Z,4.00
2018-09-08T07:05:44.096Z,4.00
2018-09-08T07:08:12.475Z,3.93
2018-09-08T07:10:40.920Z,4.33
2018-09-08T07:13:09.328Z,4.00
2018-09-08T07:15:37.686Z,4.17
2018-09-08T07:18:06.081Z,3.83
2018-09-08T07:20:34.487Z,2.43
2018-09-08T07:23:02.908Z,2.83
2018-09-08T07:25:31.350Z,3.33
2018-09-08T07:27:59.748Z,2.30
2018-09-08T07:30:28.976Z,2.70
2018-09-08T07:32:58.505Z,2.30
2018-09-08T07:35:27.118Z,2.20
2018-09-08T07:37:55.642Z,2.20
2018-09-08T07:40:23.993Z,2.00
2018-09-08T07:42:52.376Z,2.30
2018-09-08T07:45:20.765Z,2.97
2018-09-08T07:47:49.193Z,2.47
2018-09-08T07:50:17.525Z,2.27
2018-09-08T07:52:45.952Z,1.97
2018-09-08T07:55:14.355Z,2.03
2018-09-08T07:57:42.802Z,1.97
2018-09-08T08:00:11.179Z,2.07
2018-09-08T08:02:39.552Z,2.00
2018-09-08T08:05:08.458Z,2.00
2018-09-08T08:07:36.782Z,2.00
2018-09-08T08:10:05.173Z,1.70
2018-09-08T08:12:33.626Z,1.83
2018-09-08T08:15:02.105Z,2.10
2018-09-08T08:17:30.525Z,1.83
2018-09-08T08:19:58.919Z,1.97
2018-09-08T08:22:27.352Z,1.97
2018-09-08T08:24:56.107Z,1.80
2018-09-08T08:27:24.507Z,2.10
2018-09-08T08:29:52.875Z,1.80
2018-09-08T08:32:21.249Z,2.13
2018-09-08T08:34:49.788Z,2.27
2018-09-08T08:37:18.252Z,1.80
2018-09-08T08:39:46.558Z,2.30
2018-09-08T08:42:14.912Z,1.77
2018-09-08T08:44:43.270Z,1.63
2018-09-08T08:47:11.688Z,2.00
2018-09-08T08:49:40.108Z,1.70
2018-09-08T08:52:19.740Z,2.47
2018-09-08T08:54:49.986Z,1.73
2018-09-08T08:57:18.388Z,1.63
2018-09-08T08:59:46.921Z,1.73
2018-09-08T09:02:15.330Z,1.50
2018-09-08T09:04:43.809Z,2.13
2018-09-08T09:07:13.572Z,1.83
2018-09-08T09:09:42.685Z,1.70
2018-09-08T09:12:11.676Z,2.37
2018-09-08T09:14:40.592Z,1.87
2018-09-08T09:17:08.738Z,1.83
2018-09-08T09:19:48.345Z,2.10
2018-09-08T09:22:28.818Z,2.00
2018-09-08T09:25:00.422Z,1.63
2018-09-08T09:27:29.533Z,2.47
2018-09-08T09:29:58.251Z,2.60
2018-09-08T09:32:26.703Z,2.37
2018-09-08T09:34:55.686Z,1.80
2018-09-08T09:37:24.206Z,1.83
2018-09-08T09:39:53.234Z,1.90
2018-09-08T09:42:21.667Z,2.10
2018-09-08T09:44:50.028Z,2.50
2018-09-08T09:47:18.363Z,2.07
2018-09-08T09:49:46.712Z,1.40
2018-09-08T09:52:15.827Z,1.67
2018-09-08T09:54:45.719Z,1.70
2018-09-08T09:57:14.138Z,1.40
2018-09-08T09:59:42.505Z,1.30
2018-09-08T10:02:44.431Z,1.47
2018-09-08T10:05:23.266Z,2.00
2018-09-08T10:07:52.158Z,1.50
2018-09-08T10:10:24.877Z,1.67
2018-09-08T10:12:53.253Z,1.83
2018-09-08T10:15:21.566Z,1.80
2018-09-08T10:17:49.942Z,1.80
2018-09-08T10:20:19.752Z,1.97
2018-09-08T10:22:48.132Z,1.77
2018-09-08T10:25:17.645Z,1.63
2018-09-08T10:27:46.647Z,1.33
2018-09-08T10:30:15.459Z,1.40
2018-09-08T10:32:44.702Z,1.90
2018-09-08T10:35:13.402Z,1.23
2018-09-08T10:37:41.801Z,1.30
2018-09-08T10:40:11.092Z,1.60
2018-09-08T10:42:39.622Z,1.40
2018-09-08T10:45:08.540Z,1.40
2018-09-08T10:47:36.972Z,1.40
2018-09-08T10:50:05.610Z,1.50
2018-09-08T10:52:39.289Z,1.33
2018-09-08T10:55:07.851Z,1.43
2018-09-08T10:57:36.254Z,1.50
2018-09-08T11:00:05.091Z,1.50
2018-09-08T11:02:33.627Z,1.80
2018-09-08T11:05:02.552Z,1.70
2018-09-08T11:07:32.368Z,1.53
2018-09-08T11:10:00.783Z,1.60
2018-09-08T11:12:29.388Z,1.57
2018-09-08T11:14:57.877Z,1.47
2018-09-08T11:17:26.243Z,1.47
2018-09-08T11:19:55.033Z,1.67
2018-09-08T11:22:23.630Z,1.20
2018-09-08T11:24:52.042Z,1.60
2018-09-08T11:27:20.476Z,1.57
2018-09-08T11:29:48.811Z,1.50
2018-09-08T11:32:17.233Z,1.43
2018-09-08T11:34:45.593Z,1.37
2018-09-08T11:37:14.018Z,1.50
2018-09-08T11:39:42.398Z,1.33
2018-09-08T11:42:10.730Z,1.30
2018-09-08T11:44:39.206Z,1.40
2018-09-08T11:47:07.691Z,1.20
2018-09-08T11:49:36.183Z,1.40
2018-09-08T11:52:04.605Z,1.50
2018-09-08T11:54:32.971Z,1.50
2018-09-08T11:57:01.345Z,1.87
2018-09-08T11:59:29.862Z,1.63
2018-09-08T12:01:58.242Z,1.20
2018-09-08T12:04:26.603Z,1.40
2018-09-08T12:06:55.197Z,1.30
2018-09-08T12:09:23.759Z,1.30
2018-09-08T12:11:52.152Z,1.53
2018-09-08T12:14:20.653Z,1.50
2018-09-08T12:16:49.004Z,1.57
2018-09-08T12:19:17.406Z,1.47
2018-09-08T12:21:45.888Z,1.47
2018-09-08T12:24:14.421Z,1.40
2018-09-08T12:26:42.814Z,1.57
2018-09-08T12:29:11.124Z,1.40
2018-09-08T12:31:39.515Z,1.60
2018-09-08T12:34:07.973Z,1.63
2018-09-08T12:36:36.353Z,1.47
2018-09-08T12:39:06.797Z,1.40
2018-09-08T12:41:35.222Z,1.53
2018-09-08T12:44:03.637Z,1.60
2018-09-08T12:46:32.071Z,1.60
2018-09-08T12:49:00.444Z,1.60
2018-09-08T12:51:28.875Z,1.40
2018-09-08T12:53:57.318Z,1.73
2018-09-08T12:56:25.978Z,1.40
2018-09-08T12:58:54.438Z,1.60
2018-09-08T13:01:23.116Z,1.77
2018-09-08T13:03:51.517Z,1.47
2018-09-08T13:06:19.865Z,1.53
2018-09-08T13:08:48.346Z,1.50
2018-09-08T13:11:16.723Z,1.70
2018-09-08T13:13:45.116Z,1.80
2018-09-08T13:16:13.541Z,1.50
2018-09-08T13:18:41.911Z,1.50
2018-09-08T13:21:10.387Z,1.40
2018-09-08T13:23:38.807Z,1.47
2018-09-08T13:26:07.211Z,1.30
2018-09-08T13:28:35.657Z,1.70
2018-09-08T13:31:04.117Z,1.50
2018-09-08T13:33:32.529Z,1.67
2018-09-08T13:36:00.928Z,1.50
2018-09-08T13:38:29.337Z,1.73
2018-09-08T13:40:57.918Z,1.50
2018-09-08T13:43:26.922Z,1.50
2018-09-08T13:45:56.131Z,1.50
2018-09-08T13:48:25.057Z,1.50
2018-09-08T13:51:02.291Z,1.80
2018-09-08T13:53:30.911Z,1.43
2018-09-08T13:55:59.375Z,1.80
2018-09-08T13:58:27.812Z,1.63
2018-09-08T14:00:56.305Z,1.80
2018-09-08T14:03:24.694Z,1.60
2018-09-08T14:05:53.280Z,1.60
2018-09-08T14:08:21.737Z,1.60
2018-09-08T14:10:50.182Z,1.90
2018-09-08T14:13:18.655Z,1.60
2018-09-08T14:15:47.060Z,1.40
2018-09-08T14:18:20.934Z,1.50
2018-09-08T14:20:49.529Z,1.40
2018-09-08T14:23:18.018Z,1.70
2018-09-08T14:25:46.429Z,1.43
2018-09-08T14:28:14.857Z,1.50
2018-09-08T14:30:43.976Z,1.60
2018-09-08T14:33:13.604Z,1.53
2018-09-08T14:35:42.103Z,1.80
2018-09-08T14:38:10.466Z,1.30
2018-09-08T14:40:40.516Z,1.47
2018-09-08T14:43:08.967Z,3.30
2018-09-08T14:45:37.442Z,1.80
2018-09-08T14:48:07.221Z,1.70
2018-09-08T14:50:36.478Z,1.60
2018-09-08T14:53:05.196Z,1.73
2018-09-08T14:55:34.578Z,1.47
2018-09-08T14:58:02.989Z,1.73
2018-09-08T15:00:31.375Z,1.83
2018-09-08T15:02:59.835Z,1.77
2018-09-08T15:05:28.183Z,1.70
2018-09-08T15:07:56.726Z,1.90
2018-09-08T15:10:25.270Z,1.63
2018-09-08T15:12:54.043Z,1.80
2018-09-08T15:15:22.464Z,1.83
2018-09-08T15:17:50.871Z,2.03
2018-09-08T15:20:19.243Z,1.67
2018-09-08T15:22:47.656Z,2.13
2018-09-08T15:25:16.048Z,1.80
2018-09-08T15:27:44.460Z,1.70
2018-09-08T15:30:12.795Z,1.70
2018-09-08T15:32:41.404Z,1.57
2018-09-08T15:35:09.694Z,1.70
2018-09-08T15:37:38.085Z,1.73
2018-09-08T15:40:06.475Z,1.57
2018-09-08T15:42:34.825Z,1.93
2018-09-08T15:45:03.157Z,1.90
2018-09-08T15:47:31.555Z,1.83
2018-09-08T15:49:59.911Z,2.00
2018-09-08T15:52:28.293Z,1.77
2018-09-08T15:54:56.929Z,1.80
2018-09-08T15:57:25.356Z,2.00
2018-09-08T15:59:53.855Z,2.23
2018-09-08T16:02:22.248Z,2.67
2018-09-08T16:04:50.663Z,2.20
2018-09-08T16:07:19.032Z,1.80
2018-09-08T16:09:47.441Z,1.67
2018-09-08T16:12:15.825Z,1.80
2018-09-08T16:14:44.201Z,1.63
2018-09-08T16:17:12.546Z,1.87
2018-09-08T16:19:41.015Z,2.03
2018-09-08T16:22:09.350Z,1.50
2018-09-08T16:24:37.839Z,1.50
2018-09-08T16:27:06.343Z,1.50
2018-09-08T16:29:34.757Z,1.90
2018-09-08T16:32:03.100Z,2.20
2018-09-08T16:34:31.445Z,3.67
2018-09-08T16:36:59.789Z,2.30
2018-09-08T16:39:28.172Z,2.03
2018-09-08T16:41:56.907Z,2.50
2018-09-08T16:44:25.332Z,2.13
2018-09-08T16:46:53.702Z,1.67
2018-09-08T16:49:22.099Z,2.40
2018-09-08T16:51:50.469Z,1.80
2018-09-08T16:54:18.893Z,1.70
2018-09-08T16:56:47.298Z,1.60
2018-09-08T16:59:15.729Z,1.67
2018-09-08T17:01:44.176Z,1.70
2018-09-08T17:04:12.556Z,1.63
2018-09-08T17:06:40.941Z,2.07
2018-09-08T17:09:09.389Z,1.63
2018-09-08T17:11:38.121Z,1.70
2018-09-08T17:14:06.572Z,1.87
2018-09-08T17:16:35.066Z,2.10
2018-09-08T17:19:03.417Z,1.60
2018-09-08T17:21:31.801Z,2.00
2018-09-08T17:24:00.133Z,1.90
2018-09-08T17:26:28.640Z,1.83
2018-09-08T17:28:57.032Z,1.63
2018-09-08T17:31:25.419Z,2.10
2018-09-08T17:33:53.792Z,2.47
2018-09-08T17:36:22.185Z,1.90
2018-09-08T17:38:50.572Z,1.60
2018-09-08T17:41:19.191Z,1.73
2018-09-08T17:43:47.565Z,2.10
2018-09-08T17:46:15.928Z,2.00
2018-09-08T17:48:44.286Z,1.73
2018-09-08T17:51:12.683Z,2.20
2018-09-08T17:53:41.119Z,2.20
2018-09-08T17:56:09.743Z,1.97
2018-09-08T17:58:39.099Z,2.07
2018-09-08T18:01:07.555Z,1.87
2018-09-08T18:03:35.993Z,2.80
2018-09-08T18:06:04.532Z,1.77
2018-09-08T18:08:33.184Z,2.10
2018-09-08T18:11:01.815Z,2.00
2018-09-08T18:13:30.888Z,2.40
2018-09-08T18:15:59.274Z,2.77
2018-09-08T18:18:27.722Z,3.70
2018-09-08T18:20:56.274Z,3.00
2018-09-08T18:23:24.676Z,3.57
2018-09-08T18:25:53.027Z,2.63
2018-09-08T18:28:21.544Z,2.70
2018-09-08T18:30:49.972Z,3.57
2018-09-08T18:33:18.367Z,3.97
2018-09-08T18:35:47.213Z,3.30
2018-09-08T18:38:15.883Z,2.43
2018-09-08T18:40:44.327Z,2.70
2018-09-08T18:43:12.707Z,2.80
2018-09-08T18:45:41.100Z,2.30
2018-09-08T18:48:09.482Z,3.00
2018-09-08T18:50:38.003Z,3.07
2018-09-08T18:53:06.930Z,4.27
2018-09-08T18:55:35.284Z,3.30
2018-09-08T18:58:03.741Z,3.90
2018-09-08T19:00:32.522Z,3.37
2018-09-08T19:03:00.997Z,4.43
2018-09-08T19:05:30.163Z,4.83
2018-09-08T19:07:58.949Z,4.53
2018-09-08T19:10:27.364Z,3.60
2018-09-08T19:12:56.670Z,3.50
2018-09-08T19:15:25.308Z,2.67
2018-09-08T19:17:53.689Z,2.50
2018-09-08T19:20:27.403Z,3.10
2018-09-08T19:22:55.983Z,3.90
2018-09-08T19:25:25.250Z,3.50
2018-09-08T19:27:54.375Z,3.63
2018-09-08T19:30:22.814Z,3.80
2018-09-08T19:32:51.615Z,10.87
2018-09-08T19:35:25.583Z,16.10
2018-09-08T19:37:54.148Z,11.47
2018-09-08T19:40:27.898Z,8.70
2018-09-08T19:42:57.681Z,5.83
2018-09-08T19:45:26.069Z,6.60
2018-09-08T19:47:59.673Z,11.93
2018-09-08T19:50:28.241Z,9.47
2018-09-08T19:53:01.985Z,11.27
2018-09-08T19:55:30.365Z,17.20
2018-09-08T19:58:04.278Z,30.70
2018-09-08T20:00:32.776Z,18.27
2018-09-08T20:03:01.214Z,15.10
2018-09-08T20:05:29.645Z,8.50
2018-09-08T20:07:58.975Z,7.33
2018-09-08T20:10:27.519Z,3.30
2018-09-08T20:12:56.195Z,2.67
2018-09-08T20:15:26.154Z,2.77
2018-09-08T20:17:54.843Z,2.70
2018-09-08T20:20:23.245Z,2.73
2018-09-08T20:22:51.874Z,2.60
2018-09-08T20:25:20.306Z,2.57
2018-09-08T20:27:49.012Z,2.50
2018-09-08T20:30:17.929Z,2.40
2018-09-08T20:32:46.427Z,2.80
2018-09-08T20:35:15.038Z,2.93
2018-09-08T20:37:43.472Z,2.80
2018-09-08T20:40:11.823Z,2.63
2018-09-08T20:42:40.305Z,2.60
2018-09-08T20:45:08.837Z,2.13
2018-09-08T20:47:37.287Z,2.50
2018-09-08T20:50:05.739Z,2.40
2018-09-08T20:52:37.131Z,2.60
2018-09-08T20:55:05.576Z,2.80
2018-09-08T20:57:33.963Z,2.63
2018-09-08T21:00:02.369Z,2.53
2018-09-08T21:02:31.561Z,2.77
2018-09-08T21:05:00.005Z,2.93
2018-09-08T21:07:28.416Z,2.67
2018-09-08T21:09:56.829Z,2.90
2018-09-08T21:12:25.192Z,2.93
2018-09-08T21:14:53.712Z,3.00
2018-09-08T21:17:22.075Z,3.23
2018-09-08T21:19:50.552Z,2.70
2018-09-08T21:22:19.010Z,2.67
2018-09-08T21:24:47.403Z,3.40
2018-09-08T21:27:16.279Z,2.60
2018-09-08T21:29:44.930Z,2.83
2018-09-08T21:32:13.438Z,2.40
2018-09-08T21:34:41.890Z,2.73
2018-09-08T21:37:10.354Z,3.10
2018-09-08T21:39:38.753Z,2.87
2018-09-08T21:42:07.165Z,3.60
2018-09-08T21:44:35.537Z,2.90
2018-09-08T21:47:05.912Z,2.70
2018-09-08T21:49:32.762Z,2.93
2018-09-08T21:52:01.164Z,3.60
2018-09-08T21:54:29.669Z,2.50
2018-09-08T21:56:58.305Z,3.10
2018-09-08T21:59:26.700Z,2.80
2018-09-08T22:01:55.221Z,2.77
2018-09-08T22:04:23.770Z,3.00
2018-09-08T22:06:52.148Z,3.10
2018-09-08T22:09:20.540Z,3.60
2018-09-08T22:11:48.948Z,3.40
2018-09-08T22:14:17.396Z,3.43
2018-09-08T22:16:45.804Z,3.30
2018-09-08T22:19:14.152Z,3.00
2018-09-08T22:21:42.615Z,3.10
2018-09-08T22:24:10.991Z,3.30
2018-09-08T22:26:39.314Z,2.80
2018-09-08T22:29:07.777Z,3.20
2018-09-08T22:31:36.205Z,2.77
2018-09-08T22:34:04.757Z,2.80
2018-09-08T22:36:33.112Z,3.37
2018-09-08T22:39:01.444Z,3.20
2018-09-08T22:41:29.798Z,2.97
2018-09-08T22:43:58.196Z,2.83
2018-09-08T22:46:26.590Z,2.80
2018-09-08T22:48:54.988Z,3.10
2018-09-08T22:51:23.419Z,3.17
2018-09-08T22:53:51.713Z,3.13
2018-09-08T22:56:20.082Z,3.63
2018-09-08T22:58:48.466Z,3.40
2018-09-08T23:01:16.817Z,3.50
2018-09-08T23:03:45.142Z,3.30
2018-09-08T23:06:13.622Z,3.20
2018-09-08T23:08:41.995Z,3.47
2018-09-08T23:11:10.349Z,3.00
2018-09-08T23:13:38.920Z,3.57
2018-09-08T23:16:07.382Z,3.40
2018-09-08T23:18:35.799Z,3.30
2018-09-08T23:21:04.102Z,3.33
2018-09-08T23:23:33.007Z,3.40
2018-09-08T23:26:10.732Z,3.40
2018-09-08T23:28:39.097Z,3.20
2018-09-08T23:31:07.503Z,3.27
2018-09-08T23:33:35.937Z,3.60
2018-09-08T23:36:04.256Z,4.07
2018-09-08T23:38:32.559Z,3.30
2018-09-08T23:41:02.248Z,4.37
2018-09-08T23:43:30.644Z,3.77
2018-09-08T23:45:58.992Z,3.90
2018-09-08T23:48:27.353Z,3.50
2018-09-08T23:50:55.739Z,3.43
2018-09-08T23:53:24.070Z,3.40
2018-09-08T23:55:52.406Z,3.67
2018-09-08T23:58:20.831Z,3.60
